Bookmark and Share
Track history (hours):
 

Smit Barbados

Last reported at 2014-Apr-19 02:11 UTC. Time now 2014-Apr-20 23:49 UTC.
Position N 53°27' W 003°01'.

Length 30 m; draft 4.8 m.

Type: Tug. MMSI: 235055303.

NotesDate/timePositionNaut miles runAvg speedWind from/ knotsBaromVisibWave heightAir tempDewpointWater temp
2014-Apr-19 02:11N 53°27' W 003°01'0 0.1
2014-Apr-19 00:22N 53°27' W 003°01'1 0.7
2014-Apr-18 23:33N 53°27' W 003°02'0 0.3
2014-Apr-18 22:25N 53°27' W 003°01'1 0.5
2014-Apr-18 21:28N 53°27' W 003°01'1 0.1
2014-Apr-18 11:30N 53°27' W 003°01'1 0.0
2014-Apr-17 10:28N 53°26' W 003°01'1 0.2
2014-Apr-17 07:33N 53°26' W 002°60'0 0.0
2014-Apr-17 06:31N 53°26' W 002°60'0 0.0
2014-Apr-17 05:33N 53°26' W 002°60'0 0.0
2014-Apr-17 04:33N 53°26' W 002°60'0 0.0
2014-Apr-17 03:33N 53°26' W 002°60'0 0.0
2014-Apr-17 02:33N 53°26' W 002°60'0 0.0
2014-Apr-17 01:33N 53°26' W 002°60'0 0.0
2014-Apr-17 00:33N 53°26' W 002°60'0 0.0
2014-Apr-16 23:33N 53°26' W 002°60'0 0.0
2014-Apr-16 22:33N 53°26' W 002°60'0 0.0
2014-Apr-16 21:33N 53°26' W 002°60'0 0.0
2014-Apr-16 20:33N 53°26' W 002°60'0 0.0
2014-Apr-16 19:33N 53°26' W 002°60'0 0.0
2014-Apr-16 18:33N 53°26' W 002°60'0 0.0
2014-Apr-16 17:33N 53°26' W 002°60'0 0.0
2014-Apr-16 16:33N 53°26' W 002°60'0 0.0
2014-Apr-16 15:33N 53°26' W 002°60'0 0.0
2014-Apr-16 14:33N 53°26' W 002°60'0 0.0
2014-Apr-16 13:33N 53°26' W 002°60'0 0.0
2014-Apr-16 12:33N 53°26' W 002°60'0 0.0
2014-Apr-16 11:33N 53°26' W 002°60'0 0.0
2014-Apr-16 10:33N 53°26' W 002°60'0 0.0
2014-Apr-16 09:12N 53°26' W 002°60'0 0.0
2014-Apr-16 08:32N 53°26' W 002°60'0 0.0
2014-Apr-16 07:33N 53°26' W 002°60'0 0.0
2014-Apr-16 06:32N 53°26' W 002°60'0 0.0
2014-Apr-16 05:33N 53°26' W 002°60'0 0.0
2014-Apr-16 04:31N 53°26' W 002°60'0 0.0
2014-Apr-16 03:33N 53°26' W 002°60'0 0.0
2014-Apr-16 02:33N 53°26' W 002°60'0 0.0
2014-Apr-16 01:33N 53°26' W 002°60'0 0.0
2014-Apr-16 00:33N 53°26' W 002°60'0 0.0
2014-Apr-15 23:31N 53°26' W 002°60'0 0.0
2014-Apr-15 22:33N 53°26' W 002°60'0 0.0
2014-Apr-15 18:33N 53°26' W 002°60'0 0.0
2014-Apr-15 17:32N 53°26' W 002°60'0 0.0
2014-Apr-15 16:33N 53°26' W 002°60'0 0.0
2014-Apr-15 15:32N 53°26' W 002°60'0 0.0
2014-Apr-15 14:33N 53°26' W 002°60'0 0.0
2014-Apr-15 12:34N 53°26' W 002°60'0 0.0
2014-Apr-15 11:33N 53°26' W 002°60'0 0.0
2014-Apr-15 10:33N 53°26' W 002°60'2 2.0
2014-Apr-15 09:34N 53°28' W 003°01'1 0.5
2014-Apr-15 08:34N 53°27' W 003°01'1 1.1
2014-Apr-15 07:34N 53°27' W 003°03'3 3.4
2014-Apr-15 06:34N 53°24' W 003°00'0 0.0
2014-Apr-15 05:33N 53°24' W 003°00'3 1.4
2014-Apr-15 03:34N 53°27' W 003°01'0 0.0
2014-Apr-15 02:34N 53°27' W 003°01'0 0.0
2014-Apr-15 01:34N 53°27' W 003°01'0 0.0
2014-Apr-15 00:34N 53°27' W 003°01'0 0.2
2014-Apr-14 23:34N 53°27' W 003°01'5 5.2
2014-Apr-14 22:34N 53°22' W 002°59'0 0.3
2014-Apr-14 21:34N 53°22' W 002°58'2 0.1
2014-Apr-14 09:34N 53°20' W 002°58'6 2.0
2014-Apr-14 06:33N 53°26' W 003°01'1 0.5
2014-Apr-14 05:33N 53°26' W 002°60'0 0.0
2014-Apr-13 22:33N 53°26' W 002°60'0 0.0
2014-Apr-13 21:23N 53°26' W 002°60'1 0.8
2014-Apr-13 20:33N 53°26' W 003°01'1 0.9
2014-Apr-13 19:33N 53°27' W 003°02'1 0.5
2014-Apr-13 18:33N 53°27' W 003°01'1 0.3
2014-Apr-13 14:20N 53°26' W 002°60'0 0.0
2014-Apr-13 13:29N 53°26' W 002°60'0 0.0
2014-Apr-13 12:21N 53°26' W 002°60'1 0.4
2014-Apr-13 10:33N 53°26' W 003°01'3 3.1
2014-Apr-13 09:31N 53°23' W 003°00'0 0.0
2014-Apr-13 08:32N 53°23' W 003°00'1 1.2
2014-Apr-13 07:33N 53°24' W 003°01'1 1.5
2014-Apr-13 06:32N 53°26' W 002°60'0 0.0
2014-Apr-13 04:23N 53°26' W 002°60'0 0.0
2014-Apr-13 00:11N 53°26' W 002°60'0 0.0
2014-Apr-12 23:33N 53°26' W 002°60'0 0.0
2014-Apr-12 22:28N 53°26' W 002°60'0 0.0
2014-Apr-12 21:31N 53°26' W 002°60'1 0.2
2014-Apr-12 18:33N 53°26' W 003°00'1 1.0
2014-Apr-12 17:33N 53°27' W 003°01'2 0.7
2014-Apr-12 15:21N 53°26' W 002°60'0 0.0
2014-Apr-12 13:33N 53°26' W 002°60'2 1.5
2014-Apr-12 12:33N 53°27' W 003°01'0 0.3
2014-Apr-12 11:33N 53°27' W 003°01'0 0.2
2014-Apr-12 10:33N 53°27' W 003°01'0 0.1
2014-Apr-12 09:32N 53°27' W 003°01'1 0.6
2014-Apr-12 08:33N 53°28' W 003°01'0 0.0
2014-Apr-12 07:32N 53°28' W 003°01'2 0.9
2014-Apr-12 05:23N 53°26' W 002°60'0 0.0
2014-Apr-12 04:33N 53°26' W 002°60'0 0.0
2014-Apr-12 03:09N 53°26' W 002°60'0 0.0
2014-Apr-11 23:32N 53°26' W 002°60'0 0.0
2014-Apr-11 22:33N 53°26' W 002°60'0 0.0
2014-Apr-11 21:32N 53°26' W 002°60'0 0.1
2014-Apr-11 20:33N 53°26' W 003°00'1 1.3
2014-Apr-11 19:33N 53°27' W 003°01'1 1.1
2014-Apr-11 18:33N 53°27' W 003°03'1 0.9
2014-Apr-11 17:33N 53°27' W 003°02'0 0.4
2014-Apr-11 16:33N 53°27' W 003°01'1 1.4
2014-Apr-11 15:33N 53°26' W 002°60'0 0.0
2014-Apr-11 14:33N 53°26' W 002°60'0 0.0
2014-Apr-11 13:33N 53°26' W 002°60'0 0.0
2014-Apr-11 12:33N 53°26' W 002°60'0 0.0
2014-Apr-11 11:32N 53°26' W 002°60'0 0.0
2014-Apr-11 10:31N 53°26' W 002°60'0 0.0
2014-Apr-11 09:33N 53°26' W 002°60'0 0.0
2014-Apr-11 08:33N 53°26' W 002°60'0 0.0
2014-Apr-11 07:31N 53°26' W 002°60'0 0.0
2014-Apr-11 06:33N 53°26' W 002°60'0 0.0
2014-Apr-11 05:33N 53°26' W 002°60'0 0.0
2014-Apr-11 04:33N 53°26' W 002°60'0 0.0
2014-Apr-11 03:33N 53°26' W 002°60'0 0.0
2014-Apr-11 02:33N 53°26' W 002°60'0 0.0
2014-Apr-11 01:33N 53°26' W 002°60'0 0.0
2014-Apr-11 00:33N 53°26' W 002°60'0 0.0
2014-Apr-10 23:33N 53°26' W 002°60'0 0.0
2014-Apr-10 22:33N 53°26' W 002°60'0 0.0
2014-Apr-10 21:33N 53°26' W 002°60'0 0.0
2014-Apr-10 20:33N 53°26' W 002°60'1 0.5
2014-Apr-10 18:33N 53°27' W 003°01'0 0.4
2014-Apr-10 17:33N 53°27' W 003°01'1 1.5
2014-Apr-10 16:32N 53°26' W 002°60'0 0.0
2014-Apr-10 15:33N 53°26' W 002°60'0 0.0
2014-Apr-10 14:33N 53°26' W 002°60'0 0.0
2014-Apr-10 13:32N 53°26' W 002°60'0 0.4
2014-Apr-10 12:33N 53°26' W 003°00'0 0.4
2014-Apr-10 11:33N 53°26' W 003°01'0 0.2
2014-Apr-10 10:33N 53°26' W 003°01'0 0.0
2014-Apr-10 09:34N 53°26' W 003°01'1 0.5
2014-Apr-10 08:19N 53°26' W 002°60'0 0.0
2014-Apr-10 07:30N 53°26' W 002°60'0 0.0
2014-Apr-10 05:30N 53°26' W 002°60'0 0.0
2014-Apr-09 23:30N 53°26' W 002°60'0 0.0
2014-Apr-09 22:32N 53°26' W 002°60'0 0.0
2014-Apr-09 21:33N 53°26' W 002°60'0 0.0
2014-Apr-09 20:33N 53°26' W 002°60'0 0.0
2014-Apr-09 19:33N 53°26' W 002°60'1 0.9
2014-Apr-09 18:33N 53°27' W 003°01'1 1.1
2014-Apr-09 17:33N 53°28' W 003°01'2 1.5
2014-Apr-09 16:15N 53°26' W 002°60'0 0.0
2014-Apr-09 11:32N 53°26' W 002°60'0 0.0
2014-Apr-09 09:28N 53°26' W 002°60'0 0.0
2014-Apr-09 08:32N 53°26' W 002°60'0 0.0
2014-Apr-09 06:30N 53°26' W 002°60'0 0.0
2014-Apr-09 05:32N 53°26' W 002°60'0 0.0
2014-Apr-09 03:33N 53°26' W 002°60'0 0.0
2014-Apr-09 02:33N 53°26' W 002°60'  

Dump ship's entire track history

sailing weather and tide predictions

Smit Barbados — MSDU8 — position and weather